Air Resources Laboratory banner image
Air Resources Laboratory web site National Oceanic and Atmospheric Administration (NOAA)

wi metar


KAIG 140155Z AUTO 01005KT 7SM -SN SCT021 BKN028 OVC039 M11/M12 A2974 RMK AO2
 T11071123=
KAIG 140215Z AUTO 01005KT 7SM -SN SCT019 SCT028 M12/M13 A2975 RMK AO2 T11181133=
KARV 140155Z AUTO 34005KT 7SM -SN SCT014 SCT020 OVC034 M08/M10 A2976 RMK AO2
 P0001 T10851100=
KASX 140153Z AUTO 04006KT 10SM OVC033 M07/M12 A2990 RMK AO2 SNB0054E05 SLP140
 P0000 T10671117=
KATW 140145Z 01021G25KT 7SM OVC030 M08/M12 A2970=
KAUW 140154Z AUTO 35003KT 10SM BKN022 M09/M11 A2976 RMK AO2 SLP104 T10891111=
KCLI 140223Z AUTO 02011KT 10SM SCT021 M08/M12 A2979 RMK AO2=
KCMY 140155Z AUTO 35006KT 10SM SCT018 SCT055 M07/M10 A2982 RMK AO2 T10721098=
KCWA 140147Z 36006KT 7SM SCT038 SCT048 M09/M11 A2977=
KDLL 140155Z AUTO 34012G17KT 10SM SCT015 SCT022 M06/M09 A2974 RMK AO2 T10651090=
KEAU 140156Z 34004KT 10SM CLR M09/M12 A2986 RMK AO2 SLP127 T10941122=
KEFT 140155Z AUTO 33009G19KT 10SM OVC022 M04/M09 A2968 RMK AO2=
KEGV 140155Z AUTO 34005KT 7SM -SN OVC029 M09/M11 A2974 RMK AO2 T10911113=
KENW 140153Z 36013G25KT 4SM -SN SCT015 BKN023 OVC028 M02/M05 A2959 RMK AO2
 PRESRR SLP029 P0000 T10171050=
KETB 140155Z AUTO 36008KT 4SM -SN OVC014 M04/M05 A2964 RMK AO2=
KFLD 140153Z AUTO 36019G26KT 4SM -SN BKN013 BKN024 OVC031 M06/M08 A2971 RMK AO2
 PK WND 02029/0124 UPE15SNB15 PRESRR SLP072 P0000 T10561083=
KGRB 140153Z 01022KT 9SM UP FEW031 FEW075 M08/M12 A2975 RMK AO2 PK WND
 02029/0100 UPB32SNE31 PRESRR SLP085 P0000 T10831122=
KHYR 140153Z AUTO 02010G18KT 6SM -SN OVC025 M07/M10 A2986 RMK AO2 SLP136 P0000
 T10671100=
KISW 140154Z AUTO 03010KT 9SM FEW013 SCT023 M08/M10 A2979 RMK AO2 SNE50 SLP107
 P0000 T10781100=
KJVL 140145Z 33014G22KT 10SM OVC021 M03/M07 A2966=
KLNR 140156Z AUTO 34013G20KT 10SM OVC024 M05/M09 A2977 RMK AO2 SLP086 T10501089=
KLSE 140153Z 35015KT 10SM OVC050 M05/M10 A2983 RMK AO2 SLP114 T10501100=
KMDZ 140155Z AUTO 35006KT 10SM CLR M11/M13 A2978 RMK AO2 T11151133=
KMFI 140154Z AUTO 36006KT 10SM SCT044 M09/M12 A2977 RMK AO2 SLP103 T10891117
 TSNO=
KMKE 140152Z 01016G29KT 5SM BR BKN022 BKN029 OVC037 M02/M06 A2960 RMK AO2 PK
 WND 36030/0120 PRESRR SLP034 SNE47 P0000 T10171061=
KMRJ 140155Z AUTO 33015G22KT 10SM OVC021 M04/M08 A2973 RMK AO2=
KMSN 140153Z 35013G22KT 4SM -SN BR BKN018 BKN029 OVC036 M05/M07 A2970 RMK AO2
 SNB0055 SLP068 P0000 T10501072=
KMTW 140156Z AUTO 36015G21KT 5SM -SN BR OVC005 M06/M08 A2968 RMK AO2 CIG
 003V007 SLP073 P0001 T10611083 FZRANO=
KMWC 140145Z 36013G20KT 7SM -SN SCT016 BKN020 OVC027 M03/M07 A2962=
KOEO 140155Z AUTO 34003KT 10SM CLR M08/M09 A2993 RMK AO2 T10761094=
KOSH 140153Z 36019KT 5SM HZ BKN015 OVC046 M07/M09 A2972 RMK AO2 SNE53 PRESRR
 SLP084 P0000 T10671094=
KOVS 140153Z AUTO 34006KT 10SM OVC028 M04/M10 A2980 RMK AO2 SLP100 T10441100=
KPBH 140155Z AUTO 35004KT 10SM SCT022 SCT028 OVC036 M10/M11 A2978 RMK AO2
 T11021112=
KPDC 140155Z AUTO 33012G19KT 10SM BKN027 BKN035 OVC044 M04/M10 A2980 RMK AO2
 T10401103=
KRAC 140153Z AUTO 01018G29KT 8SM UP FEW018 OVC025 M02/M06 A2961 RMK AO2 PK WND
 01033/0133 WSHFT 0040 UPB53SNE53 PRESRR SLP033 P0000 T10221061=
KRHI 140153Z AUTO 33003KT 10SM OVC037 M10/M12 A2975 RMK AO2 SLP109 T11001117=
KRPD 140155Z AUTO 00000KT 10SM BKN038 M09/M10 A2988 RMK AO2 T10881104=
KRRL 140155Z AUTO 00000KT 10SM CLR M11/M12 A2977 RMK AO2 T11071120=
KRYV 140155Z AUTO 36013G20KT 10SM BKN015 OVC025 M04/M05 A2967 RMK AO2 T10401051=
KSBM 140153Z AUTO 36011G21KT 2 1/2SM -SN BR BKN015 OVC022 M04/M06 A2964 RMK AO2
 SLP048 P0000 T10391056 TSNO=
KSTE 140155Z AUTO 01006KT 10SM -SN SCT022 SCT029 M09/M11 A2978 RMK AO2
 T10951107=
KSUE 140156Z AUTO 02013KT 10SM OVC019 M08/M13 A2973 RMK AO2 PK WND 02027/0138
 SNE39 SLP092 P0000 T10831128 FZRANO=
KSUW 140155Z AUTO 36007KT 10SM SCT030 BKN038 OVC044 M06/M10 A2991 RMK AO2
 T10621097=
KUES 140145Z 35010G16KT 10SM BKN018 OVC027 M04/M07 A2962=
KUNU 140155Z AUTO 34016G24KT 3SM -SN SCT013 BKN017 OVC022 M05/M07 A2969 RMK AO2
 T10501069=
KVOK 140152Z 33010KT 10SM SCT025 BKN045 M08/M10 A2978 RMK AO2A=